createdAt,value
2022-09-05T00:02:03.266Z,2.40
2022-09-05T00:04:51.960Z,1.90
2022-09-05T00:07:34.399Z,1.80
2022-09-05T00:10:46.679Z,1.50
2022-09-05T00:13:40.701Z,1.90
2022-09-05T00:16:45.162Z,1.83
2022-09-05T00:24:20.751Z,1.70
2022-09-05T00:24:32.399Z,2.00
2022-09-05T00:26:55.893Z,1.87
2022-09-05T00:31:07.096Z,2.00
2022-09-05T00:33:28.238Z,2.13
2022-09-05T00:36:22.588Z,1.80
2022-09-05T00:39:05.051Z,2.50
2022-09-05T00:41:34.263Z,1.87
2022-09-05T00:44:03.912Z,2.03
2022-09-05T00:46:56.654Z,2.40
2022-09-05T00:49:50.131Z,1.73
2022-09-05T00:53:06.789Z,2.60
2022-09-05T00:55:57.851Z,2.60
2022-09-05T00:58:53.053Z,1.70
2022-09-05T01:01:48.062Z,1.80
2022-09-05T01:04:53.733Z,2.37
2022-09-05T01:08:06.496Z,2.00
2022-09-05T01:11:01.253Z,1.97
2022-09-05T01:14:28.149Z,1.90
2022-09-05T01:17:32.401Z,2.47
2022-09-05T01:20:55.158Z,1.67
2022-09-05T01:24:04.011Z,1.87
2022-09-05T01:26:33.846Z,1.50
2022-09-05T01:29:43.220Z,1.77
2022-09-05T01:32:45.074Z,3.00
2022-09-05T01:36:03.833Z,2.07
2022-09-05T01:40:14.645Z,1.80
2022-09-05T01:42:17.543Z,2.80
2022-09-05T01:45:16.049Z,2.20
2022-09-05T01:47:56.720Z,2.40
2022-09-05T01:50:59.495Z,2.30
2022-09-05T01:53:53.132Z,1.67
2022-09-05T01:56:49.342Z,2.10
2022-09-05T01:59:45.966Z,2.53
2022-09-05T02:02:22.487Z,1.80
2022-09-05T02:05:47.918Z,1.97
2022-09-05T02:08:16.290Z,1.90
2022-09-05T02:11:08.493Z,2.60
2022-09-05T02:13:35.569Z,2.33
2022-09-05T02:16:27.385Z,2.37
2022-09-05T02:19:17.010Z,2.40
2022-09-05T02:22:07.636Z,2.57
2022-09-05T02:24:43.158Z,2.17
2022-09-05T02:28:04.050Z,2.07
2022-09-05T02:30:33.475Z,2.03
2022-09-05T02:33:21.967Z,2.73
2022-09-05T02:36:16.608Z,2.60
2022-09-05T02:40:42.775Z,2.20
2022-09-05T02:45:10.556Z,2.10
2022-09-05T02:45:33.261Z,1.80
2022-09-05T02:48:41.435Z,1.90
2022-09-05T02:55:12.860Z,2.20
2022-09-05T02:57:35.599Z,1.77
2022-09-05T02:58:05.478Z,2.27
2022-09-05T03:00:48.132Z,1.90
2022-09-05T03:03:43.705Z,1.80
2022-09-05T03:06:58.533Z,2.90
2022-09-05T03:10:08.106Z,3.40
2022-09-05T03:13:28.548Z,2.67
2022-09-05T03:16:28.911Z,2.07
2022-09-05T03:19:31.753Z,1.90
2022-09-05T03:22:36.172Z,2.27
2022-09-05T03:25:22.831Z,1.47
2022-09-05T03:28:55.650Z,2.63
2022-09-05T03:31:37.019Z,2.00
2022-09-05T03:34:35.225Z,2.43
2022-09-05T03:37:26.524Z,2.20
2022-09-05T03:40:15.979Z,2.30
2022-09-05T03:43:30.009Z,1.70
2022-09-05T03:46:49.284Z,2.27
2022-09-05T03:50:57.718Z,1.90
2022-09-05T03:57:13.962Z,2.30
2022-09-05T03:57:15.838Z,3.10
2022-09-05T04:00:08.747Z,2.17
2022-09-05T04:08:05.952Z,2.00
2022-09-05T04:08:21.877Z,2.00
2022-09-05T04:09:49.327Z,3.00
2022-09-05T04:12:24.835Z,2.00
2022-09-05T04:15:05.562Z,2.30
2022-09-05T04:17:35.608Z,1.80
2022-09-05T04:20:18.124Z,3.00
2022-09-05T04:23:38.262Z,2.80
2022-09-05T04:26:45.175Z,2.63
2022-09-05T04:29:39.464Z,2.10
2022-09-05T04:32:20.195Z,2.30
2022-09-05T04:35:24.704Z,3.20
2022-09-05T04:38:15.889Z,2.80
2022-09-05T04:40:58.773Z,2.43
2022-09-05T04:43:49.083Z,2.00
2022-09-05T04:46:51.295Z,2.30
2022-09-05T04:49:37.706Z,2.07
2022-09-05T04:52:38.925Z,2.60
2022-09-05T04:55:20.855Z,2.20
2022-09-05T04:57:59.589Z,2.83
2022-09-05T05:06:03.086Z,2.23
2022-09-05T05:06:08.227Z,2.20
2022-09-05T05:07:18.663Z,3.07
2022-09-05T05:10:30.337Z,2.70
2022-09-05T05:17:55.889Z,1.87
2022-09-05T05:18:15.785Z,2.30
2022-09-05T05:19:22.818Z,2.60
2022-09-05T05:21:56.462Z,2.43
2022-09-05T05:24:41.484Z,2.00
2022-09-05T05:27:19.617Z,1.90
2022-09-05T05:30:05.545Z,2.30
2022-09-05T05:32:52.519Z,2.53
2022-09-05T05:35:29.960Z,2.17
2022-09-05T05:38:41.300Z,2.43
2022-09-05T05:41:31.614Z,2.50
2022-09-05T05:43:59.295Z,2.90
2022-09-05T05:46:39.470Z,3.07
2022-09-05T05:49:35.488Z,2.70
2022-09-05T05:52:38.832Z,2.30
2022-09-05T05:55:50.956Z,2.33
2022-09-05T05:58:11.360Z,2.57
2022-09-05T06:01:27.299Z,2.87
2022-09-05T06:04:44.760Z,2.17
2022-09-05T06:09:14.118Z,2.77
2022-09-05T06:14:53.256Z,4.73
2022-09-05T06:15:05.066Z,4.57
2022-09-05T06:17:46.239Z,2.93
2022-09-05T06:22:08.805Z,3.60
2022-09-05T06:24:13.999Z,3.10
2022-09-05T06:27:19.212Z,3.00
2022-09-05T06:30:14.119Z,3.33
2022-09-05T06:33:05.875Z,3.23
2022-09-05T06:36:31.133Z,3.53
2022-09-05T06:39:17.440Z,2.90
2022-09-05T06:41:53.376Z,2.93
2022-09-05T06:45:15.939Z,3.93
2022-09-05T06:48:08.435Z,3.10
2022-09-05T06:51:09.353Z,3.47
2022-09-05T06:54:06.747Z,2.60
2022-09-05T06:57:08.456Z,2.57
2022-09-05T07:00:00.457Z,2.97
2022-09-05T07:03:00.941Z,3.53
2022-09-05T07:06:04.794Z,3.57
2022-09-05T07:09:02.601Z,3.10
2022-09-05T07:11:47.073Z,3.20
2022-09-05T07:14:35.585Z,3.57
2022-09-05T07:17:53.578Z,3.47
2022-09-05T07:21:15.668Z,3.23
2022-09-05T07:24:10.272Z,3.00
2022-09-05T07:26:54.184Z,3.20
2022-09-05T07:29:34.440Z,3.23
2022-09-05T07:32:06.418Z,2.70
2022-09-05T07:34:38.547Z,2.77
2022-09-05T07:37:15.474Z,3.53
2022-09-05T07:40:09.858Z,2.30
2022-09-05T07:43:14.240Z,3.07
2022-09-05T07:46:02.484Z,2.83
2022-09-05T07:48:36.236Z,3.30
2022-09-05T07:56:51.279Z,3.23
2022-09-05T07:56:56.440Z,3.20
2022-09-05T08:00:02.508Z,3.20
2022-09-05T08:02:51.375Z,3.20
2022-09-05T08:05:35.193Z,3.40
2022-09-05T08:08:10.357Z,3.43
2022-09-05T08:11:24.044Z,2.67
2022-09-05T08:13:49.676Z,2.60
2022-09-05T08:16:23.634Z,3.50
2022-09-05T08:19:28.897Z,3.07
2022-09-05T08:22:23.462Z,2.27
2022-09-05T08:25:18.060Z,3.47
2022-09-05T08:28:21.185Z,2.60
2022-09-05T08:31:07.633Z,2.80
2022-09-05T08:33:37.898Z,3.00
2022-09-05T08:36:09.303Z,2.97
2022-09-05T08:38:41.228Z,2.90
2022-09-05T08:41:43.147Z,3.00
2022-09-05T08:46:39.203Z,2.57
2022-09-05T08:48:04.280Z,2.83
2022-09-05T08:50:57.042Z,2.53
2022-09-05T08:53:46.968Z,2.43
2022-09-05T08:56:37.947Z,3.23
2022-09-05T08:59:32.222Z,2.73
2022-09-05T09:03:04.290Z,2.70
2022-09-05T09:06:14.334Z,2.90
2022-09-05T09:09:08.460Z,2.40
2022-09-05T09:12:04.164Z,2.43
2022-09-05T09:14:49.445Z,2.20
2022-09-05T09:17:42.029Z,2.60
2022-09-05T09:20:27.569Z,2.80
2022-09-05T09:23:07.559Z,1.97
2022-09-05T09:26:24.658Z,2.40
2022-09-05T09:29:08.908Z,2.60
2022-09-05T09:31:55.515Z,2.20
2022-09-05T09:34:25.646Z,1.80
2022-09-05T09:37:01.342Z,1.90
2022-09-05T09:39:38.150Z,1.63
2022-09-05T09:42:40.487Z,1.97
2022-09-05T09:45:41.331Z,1.63
2022-09-05T09:48:48.908Z,1.80
2022-09-05T09:52:02.474Z,1.70
2022-09-05T09:55:01.888Z,1.93
2022-09-05T09:58:18.699Z,2.20
2022-09-05T10:01:21.562Z,6.20
2022-09-05T10:07:31.795Z,11.40
2022-09-05T10:10:51.339Z,3.20
2022-09-05T10:14:51.057Z,3.70
2022-09-05T10:17:27.345Z,1.53
2022-09-05T10:20:38.235Z,1.30
2022-09-05T10:23:21.553Z,1.63
2022-09-05T10:26:42.369Z,1.53
2022-09-05T10:29:36.939Z,1.10
2022-09-05T10:35:11.420Z,1.10
2022-09-05T10:35:22.459Z,0.90
2022-09-05T10:38:10.295Z,1.03
2022-09-05T10:40:46.383Z,1.30
2022-09-05T10:43:39.358Z,1.10
2022-09-05T10:46:51.175Z,1.00
2022-09-05T10:49:30.030Z,1.07
2022-09-05T10:52:36.074Z,1.20
2022-09-05T10:55:32.951Z,1.33
2022-09-05T10:58:04.656Z,1.00
2022-09-05T11:02:22.124Z,0.90
2022-09-05T11:04:50.216Z,1.00
2022-09-05T11:07:31.287Z,1.17
2022-09-05T11:10:07.015Z,1.20
2022-09-05T11:13:01.390Z,1.07
2022-09-05T11:16:03.837Z,0.70
2022-09-05T11:19:02.376Z,1.03
2022-09-05T11:22:12.131Z,1.17
2022-09-05T11:24:57.669Z,0.80
2022-09-05T11:27:45.604Z,1.30
2022-09-05T11:30:30.091Z,1.30
2022-09-05T11:39:47.068Z,1.00
2022-09-05T11:40:06.903Z,1.03
2022-09-05T11:40:51.123Z,1.00
2022-09-05T11:43:24.539Z,1.10
2022-09-05T11:46:37.288Z,1.03
2022-09-05T11:49:44.495Z,1.43
2022-09-05T11:52:40.783Z,0.90
2022-09-05T11:55:36.802Z,1.00
2022-09-05T11:59:04.802Z,0.90
2022-09-05T12:02:16.634Z,1.13
2022-09-05T12:05:48.666Z,1.00
2022-09-05T12:08:57.287Z,0.90
2022-09-05T12:12:39.417Z,1.10
2022-09-05T12:15:29.518Z,0.60
2022-09-05T12:18:40.838Z,0.70
2022-09-05T12:21:46.264Z,0.87
2022-09-05T12:25:16.981Z,0.90
2022-09-05T12:30:13.932Z,1.20
2022-09-05T12:36:01.217Z,1.10
2022-09-05T12:39:52.097Z,0.90
2022-09-05T12:41:33.271Z,0.80
2022-09-05T12:42:10.449Z,1.00
2022-09-05T12:42:56.204Z,0.70
2022-09-05T12:48:26.339Z,0.90
2022-09-05T12:51:46.658Z,1.13
2022-09-05T12:54:45.124Z,1.23
2022-09-05T12:59:43.408Z,0.60
2022-09-05T13:03:15.403Z,0.90
2022-09-05T13:03:31.948Z,0.90
2022-09-05T13:06:24.983Z,1.00
2022-09-05T13:09:03.723Z,1.00
2022-09-05T13:15:02.406Z,1.00
2022-09-05T13:15:22.770Z,0.70
2022-09-05T13:18:11.860Z,0.70
2022-09-05T13:20:51.577Z,0.93
2022-09-05T13:23:26.726Z,1.03
2022-09-05T13:26:33.997Z,1.00
2022-09-05T13:29:21.369Z,1.10
2022-09-05T13:37:55.827Z,1.30
2022-09-05T13:38:03.937Z,0.90
2022-09-05T13:38:13.927Z,0.90
2022-09-05T13:40:45.173Z,0.70
2022-09-05T13:43:38.348Z,0.83
2022-09-05T13:46:10.899Z,0.53
2022-09-05T13:49:35.246Z,1.00
2022-09-05T13:52:46.234Z,0.83
2022-09-05T13:55:38.510Z,0.60
2022-09-05T13:58:25.493Z,0.60
2022-09-05T14:01:30.277Z,0.83
2022-09-05T14:07:52.085Z,1.00
2022-09-05T14:10:52.617Z,0.80
2022-09-05T14:13:32.462Z,0.87
2022-09-05T14:16:13.593Z,1.07
2022-09-05T14:19:07.014Z,0.60
2022-09-05T14:21:39.455Z,0.60
2022-09-05T14:24:16.781Z,0.77
2022-09-05T14:26:48.832Z,0.60
2022-09-05T14:29:36.148Z,0.93
2022-09-05T14:37:35.381Z,1.07
2022-09-05T14:37:40.127Z,0.97
2022-09-05T14:38:40.580Z,1.27
2022-09-05T14:42:16.071Z,1.37
2022-09-05T14:45:15.538Z,0.97
2022-09-05T14:48:24.850Z,0.80
2022-09-05T14:51:09.924Z,0.93
2022-09-05T14:58:55.317Z,1.10
2022-09-05T15:02:43.096Z,0.60
2022-09-05T15:03:03.949Z,0.80
2022-09-05T15:05:45.616Z,1.07
2022-09-05T15:09:42.159Z,0.97
2022-09-05T15:12:20.657Z,1.00
2022-09-05T15:14:12.077Z,1.57
2022-09-05T15:16:45.693Z,1.07
2022-09-05T15:20:08.057Z,1.10
2022-09-05T15:22:41.885Z,0.90
2022-09-05T15:25:23.495Z,0.90
2022-09-05T15:27:51.610Z,1.10
2022-09-05T15:30:36.520Z,2.50
2022-09-05T15:33:25.746Z,1.00
2022-09-05T15:35:54.278Z,0.90
2022-09-05T15:38:34.929Z,0.90
2022-09-05T15:41:27.972Z,0.60
2022-09-05T15:44:09.636Z,0.90
2022-09-05T15:46:46.227Z,1.00
2022-09-05T15:49:40.668Z,1.30
2022-09-05T15:52:16.980Z,0.70
2022-09-05T15:54:55.178Z,0.70
2022-09-05T15:57:50.894Z,1.10
2022-09-05T16:00:51.270Z,0.90
2022-09-05T16:07:08.423Z,0.77
2022-09-05T16:10:43.605Z,1.10
2022-09-05T16:10:50.848Z,0.80
2022-09-05T16:12:44.037Z,1.00
2022-09-05T16:19:42.546Z,1.20
2022-09-05T16:23:25.849Z,0.90
2022-09-05T16:23:26.779Z,1.13
2022-09-05T16:24:45.065Z,0.70
2022-09-05T16:27:44.038Z,0.83
2022-09-05T16:30:31.111Z,0.90
2022-09-05T16:33:25.463Z,1.27
2022-09-05T16:36:07.698Z,0.87
2022-09-05T16:38:49.978Z,1.03
2022-09-05T16:41:44.389Z,0.77
2022-09-05T16:44:24.181Z,1.00
2022-09-05T16:47:35.127Z,1.03
2022-09-05T16:50:35.476Z,1.00
2022-09-05T16:53:45.571Z,0.80
2022-09-05T16:56:55.908Z,1.20
2022-09-05T16:59:33.735Z,0.80
2022-09-05T17:02:32.106Z,1.17
2022-09-05T17:05:20.459Z,0.93
2022-09-05T17:08:02.717Z,1.30
2022-09-05T17:10:50.759Z,1.00
2022-09-05T17:13:43.246Z,1.27
2022-09-05T17:16:26.050Z,1.40
2022-09-05T17:18:59.422Z,1.40
2022-09-05T17:24:02.106Z,1.27
2022-09-05T17:29:19.846Z,1.13
2022-09-05T17:29:48.959Z,1.50
2022-09-05T17:32:59.227Z,1.50
2022-09-05T17:36:08.988Z,1.57
2022-09-05T17:39:06.302Z,1.27
2022-09-05T17:41:46.606Z,1.10
2022-09-05T17:45:02.901Z,1.60
2022-09-05T17:47:52.072Z,1.73
2022-09-05T17:50:24.915Z,1.60
2022-09-05T17:53:26.345Z,1.10
2022-09-05T17:56:11.572Z,1.70
2022-09-05T17:59:05.824Z,1.50
2022-09-05T18:01:35.194Z,1.20
2022-09-05T18:04:17.609Z,1.40
2022-09-05T18:09:48.202Z,1.77
2022-09-05T18:13:13.316Z,1.53
2022-09-05T18:15:38.673Z,1.30
2022-09-05T18:18:31.322Z,1.47
2022-09-05T18:21:21.667Z,1.37
2022-09-05T18:24:04.240Z,1.47
2022-09-05T18:26:43.517Z,1.17
2022-09-05T18:29:58.528Z,1.30
2022-09-05T18:32:45.512Z,1.30
2022-09-05T18:35:37.618Z,1.70
2022-09-05T18:38:14.486Z,1.90
2022-09-05T18:41:14.278Z,1.73
2022-09-05T18:44:13.171Z,1.80
2022-09-05T18:46:52.709Z,1.60
2022-09-05T18:50:24.813Z,1.53
2022-09-05T18:52:39.208Z,1.40
2022-09-05T18:56:09.736Z,2.00
2022-09-05T18:58:29.588Z,1.23
2022-09-05T19:01:17.014Z,1.63
2022-09-05T19:03:45.613Z,1.50
2022-09-05T19:06:36.602Z,1.60
2022-09-05T19:09:20.418Z,1.73
2022-09-05T19:12:20.995Z,1.97
2022-09-05T19:14:54.481Z,1.43
2022-09-05T19:17:30.837Z,1.60
2022-09-05T19:20:33.001Z,1.60
2022-09-05T19:23:13.455Z,2.03
2022-09-05T19:25:54.255Z,1.80
2022-09-05T19:36:45.641Z,1.60
2022-09-05T19:37:03.294Z,1.90
2022-09-05T19:37:15.103Z,1.57
2022-09-05T19:37:38.275Z,1.50
2022-09-05T19:44:56.913Z,1.53
2022-09-05T19:47:34.815Z,1.63
2022-09-05T19:47:38.916Z,1.90
2022-09-05T19:48:28.353Z,1.80
2022-09-05T19:51:17.167Z,1.90
2022-09-05T19:53:54.053Z,2.30
2022-09-05T19:56:46.487Z,1.83
2022-09-05T19:59:33.801Z,2.33
2022-09-05T20:02:03.012Z,1.87
2022-09-05T20:04:46.947Z,1.90
2022-09-05T20:07:21.841Z,1.50
2022-09-05T20:09:51.858Z,1.70
2022-09-05T20:12:32.234Z,1.60
2022-09-05T20:15:18.083Z,2.20
2022-09-05T20:17:46.125Z,2.13
2022-09-05T20:20:25.613Z,1.60
2022-09-05T20:23:06.649Z,2.20
2022-09-05T20:25:55.378Z,2.57
2022-09-05T20:28:28.194Z,1.80
2022-09-05T20:31:01.974Z,2.17
2022-09-05T20:33:51.886Z,2.00
2022-09-05T20:43:07.872Z,2.20
2022-09-05T20:43:19.459Z,1.93
2022-09-05T20:43:23.465Z,1.40
2022-09-05T20:46:24.297Z,1.90
2022-09-05T20:54:07.013Z,1.80
2022-09-05T20:54:20.536Z,1.83
2022-09-05T20:54:34.785Z,1.70
2022-09-05T20:57:16.599Z,1.73
2022-09-05T20:59:44.858Z,2.03
2022-09-05T21:02:27.330Z,2.10
2022-09-05T21:05:20.880Z,2.37
2022-09-05T21:07:51.177Z,2.40
2022-09-05T21:10:55.065Z,1.50
2022-09-05T21:13:27.151Z,2.17
2022-09-05T21:15:55.799Z,2.37
2022-09-05T21:18:33.809Z,2.50
2022-09-05T21:21:28.960Z,1.90
2022-09-05T21:24:15.858Z,2.50
2022-09-05T21:26:50.959Z,2.03
2022-09-05T21:29:32.551Z,2.20
2022-09-05T21:32:02.572Z,1.80
2022-09-05T21:34:45.700Z,2.47
2022-09-05T21:37:18.240Z,2.37
2022-09-05T21:39:59.426Z,2.53
2022-09-05T21:44:59.150Z,2.40
2022-09-05T21:47:42.892Z,2.37
2022-09-05T21:48:08.439Z,1.70
2022-09-05T21:50:54.113Z,2.27
2022-09-05T21:59:14.862Z,2.60
2022-09-05T21:59:26.710Z,2.10
2022-09-05T21:59:37.013Z,1.70
2022-09-05T22:02:08.384Z,2.53
2022-09-05T22:04:41.383Z,2.67
2022-09-05T22:07:19.568Z,2.00
2022-09-05T22:10:03.309Z,2.60
2022-09-05T22:12:36.050Z,1.90
2022-09-05T22:15:27.192Z,3.00
2022-09-05T22:17:58.387Z,1.67
2022-09-05T22:20:43.921Z,2.00
2022-09-05T22:23:11.652Z,2.80
2022-09-05T22:25:39.920Z,3.03
2022-09-05T22:28:18.909Z,3.20
2022-09-05T22:30:46.141Z,2.80
2022-09-05T22:33:13.377Z,2.27
2022-09-05T22:35:41.833Z,2.50
2022-09-05T22:38:17.787Z,2.93
2022-09-05T22:40:49.237Z,2.87
2022-09-05T22:43:17.108Z,2.60
2022-09-05T22:45:44.490Z,2.37
2022-09-05T22:48:14.608Z,2.70
2022-09-05T22:50:42.971Z,2.80
2022-09-05T22:53:10.550Z,2.40
2022-09-05T22:55:41.929Z,2.43
2022-09-05T22:58:12.699Z,2.30
2022-09-05T23:00:41.357Z,2.57
2022-09-05T23:03:08.728Z,3.30
2022-09-05T23:05:35.829Z,2.60
2022-09-05T23:08:05.805Z,2.60
2022-09-05T23:10:35.150Z,1.93
2022-09-05T23:13:09.588Z,2.70
2022-09-05T23:15:38.064Z,2.63
2022-09-05T23:18:06.541Z,2.70
2022-09-05T23:20:34.535Z,2.63
2022-09-05T23:23:06.832Z,2.60
2022-09-05T23:25:36.147Z,2.40
2022-09-05T23:28:10.458Z,3.40
2022-09-05T23:30:38.696Z,2.57
2022-09-05T23:33:08.591Z,2.60
2022-09-05T23:35:37.056Z,2.50
2022-09-05T23:38:10.429Z,3.67
2022-09-05T23:40:38.649Z,2.80
2022-09-05T23:43:06.223Z,2.93
2022-09-05T23:49:58.252Z,2.27
2022-09-05T23:52:25.271Z,3.00
2022-09-05T23:54:52.322Z,2.63
2022-09-05T23:57:23.704Z,2.77
2022-09-05T23:59:52.569Z,3.80
